Time;durP1;ratioP1;P1;durP2;ratioP2;P2;SDS_P1;SDS_P2;PMS_P1;PMS_P2;Temp;Humidity;BMP_temperature;BMP_pressure;BME280_temperature;BME280_humidity;BME280_pressure;Samples;Min_cycle;Max_cycle;Signal;HPM_P1;HPM_P2
2022/01/04 00:01:06;;;;;;;0.10;0.10;;;;;;;;;;4775867;29;20464;-87
2022/01/04 00:03:32;;;;;;;0.10;0.10;;;;;;;;;;4775834;29;20071;-87
2022/01/04 00:05:58;;;;;;;0.10;0.10;;;;;;;;;;4760960;29;20487;-87
2022/01/04 00:08:26;;;;;;;0.10;0.10;;;;;;;;;;4805465;29;20511;-88
2022/01/04 00:10:55;;;;;;;0.10;0.10;;;;;;;;;;4775909;29;20058;-88
2022/01/04 00:13:23;;;;;;;0.10;0.10;;;;;;;;;;4775822;29;20081;-89
2022/01/04 00:15:49;;;;;;;0.10;0.10;;;;;;;;;;4760775;29;20094;-88
2022/01/04 00:18:16;;;;;;;0.10;0.10;;;;;;;;;;4775642;29;20127;-89
2022/01/04 00:20:42;;;;;;;0.10;0.10;;;;;;;;;;4776094;29;20050;-88
2022/01/04 00:23:08;;;;;;;0.10;0.10;;;;;;;;;;4775963;29;20412;-87
2022/01/04 00:25:34;;;;;;;0.10;0.10;;;;;;;;;;4789858;29;20055;-87
2022/01/04 00:28:01;;;;;;;0.20;0.20;;;;;;;;;;4775517;29;20051;-88
2022/01/04 00:30:29;;;;;;;0.20;0.20;;;;;;;;;;4774498;29;20069;-88
2022/01/04 00:32:55;;;;;;;0.10;0.10;;;;;;;;;;4775315;29;20403;-87
2022/01/04 00:35:21;;;;;;;0.10;0.10;;;;;;;;;;4775295;29;20059;-88
2022/01/04 00:37:47;;;;;;;0.10;0.10;;;;;;;;;;4775359;29;20406;-88
2022/01/04 00:40:13;;;;;;;0.00;0.00;;;;;;;;;;4774946;29;20477;-88
2022/01/04 00:42:39;;;;;;;0.10;0.10;;;;;;;;;;4789824;29;20084;-88
2022/01/04 00:45:05;;;;;;;0.10;0.10;;;;;;;;;;4774840;29;20046;-88
2022/01/04 00:50:28;;;;;;;0.20;0.20;;;;;;;;;;4741907;29;20165;-88
2022/01/04 00:52:54;;;;;;;0.10;0.10;;;;;;;;;;4760314;29;20072;-88
2022/01/04 00:55:20;;;;;;;0.00;0.00;;;;;;;;;;4789704;29;20492;-88
2022/01/04 00:57:45;;;;;;;0.10;0.10;;;;;;;;;;4775004;29;20117;-88
2022/01/04 01:00:12;;;;;;;0.10;0.10;;;;;;;;;;4774720;29;20047;-88
2022/01/04 01:02:38;;;;;;;0.10;0.10;;;;;;;;;;4774730;29;20054;-88
2022/01/04 01:05:04;;;;;;;0.10;0.10;;;;;;;;;;4804510;29;20496;-87
2022/01/04 01:07:30;;;;;;;0.10;0.10;;;;;;;;;;4774853;29;20529;-88
2022/01/04 01:10:18;;;;;;;0.10;0.10;;;;;;;;;;4789176;29;20050;-87
2022/01/04 01:12:44;;;;;;;0.10;0.10;;;;;;;;;;4762398;29;20082;-88
2022/01/04 01:15:10;;;;;;;0.10;0.10;;;;;;;;;;4759825;29;20085;-88
2022/01/04 01:17:36;;;;;;;0.10;0.10;;;;;;;;;;4774737;29;20508;-88
2022/01/04 01:20:03;;;;;;;0.10;0.10;;;;;;;;;;4789631;29;20135;-88
2022/01/04 01:22:29;;;;;;;0.00;0.00;;;;;;;;;;4774756;29;20054;-88
2022/01/04 01:24:55;;;;;;;0.00;0.00;;;;;;;;;;4804174;29;20492;-88
2022/01/04 01:27:21;;;;;;;0.10;0.10;;;;;;;;;;4804202;29;20572;-88
2022/01/04 01:29:47;;;;;;;0.10;0.10;;;;;;;;;;4789161;29;20467;-88
2022/01/04 01:32:12;;;;;;;0.10;0.10;;;;;;;;;;4788727;29;20054;-88
2022/01/04 01:34:38;;;;;;;0.10;0.10;;;;;;;;;;4804277;29;20051;-88
2022/01/04 01:37:05;;;;;;;0.10;0.10;;;;;;;;;;4774481;29;20039;-88
2022/01/04 01:39:31;;;;;;;0.10;0.10;;;;;;;;;;4759612;29;20051;-88
2022/01/04 01:41:56;;;;;;;0.10;0.10;;;;;;;;;;4759575;29;20480;-88
2022/01/04 01:44:23;;;;;;;0.03;0.03;;;;;;;;;;4803760;29;20127;-88
2022/01/04 01:46:48;;;;;;;0.10;0.10;;;;;;;;;;4774121;29;20053;-88
2022/01/04 01:49:14;;;;;;;0.10;0.10;;;;;;;;;;4774037;29;20478;-88
2022/01/04 01:51:40;;;;;;;0.10;0.10;;;;;;;;;;4773943;29;20055;-89
2022/01/04 01:54:06;;;;;;;0.10;0.10;;;;;;;;;;4774133;29;20059;-88
2022/01/04 01:56:32;;;;;;;0.10;0.10;;;;;;;;;;4773998;29;20046;-88
2022/01/04 01:58:58;;;;;;;0.10;0.10;;;;;;;;;;4773905;29;20095;-88
2022/01/04 02:01:24;;;;;;;0.10;0.10;;;;;;;;;;4774082;29;20043;-88
2022/01/04 02:03:50;;;;;;;0.10;0.10;;;;;;;;;;4773898;29;20073;-88
2022/01/04 02:06:16;;;;;;;0.10;0.10;;;;;;;;;;4773805;29;20069;-87
2022/01/04 02:08:42;;;;;;;0.40;0.40;;;;;;;;;;4759098;29;20050;-88
2022/01/04 02:11:08;;;;;;;0.10;0.10;;;;;;;;;;4788856;29;20116;-87
2022/01/04 02:13:34;;;;;;;0.10;0.10;;;;;;;;;;4773744;29;20114;-87
2022/01/04 02:16:02;;;;;;;0.10;0.10;;;;;;;;;;4773431;29;20039;-87
2022/01/04 02:18:28;;;;;;;0.10;0.10;;;;;;;;;;4774022;29;20476;-88
2022/01/04 02:20:54;;;;;;;0.10;0.10;;;;;;;;;;4758713;29;20086;-89
2022/01/04 02:23:20;;;;;;;0.10;0.10;;;;;;;;;;4803795;29;20449;-90
2022/01/04 02:25:46;;;;;;;0.10;0.10;;;;;;;;;;4759137;29;20388;-88
2022/01/04 02:28:12;;;;;;;0.10;0.10;;;;;;;;;;4803515;29;20042;-89
2022/01/04 02:30:38;;;;;;;0.10;0.10;;;;;;;;;;4773654;29;20043;-89
2022/01/04 02:33:04;;;;;;;0.10;0.10;;;;;;;;;;4758547;29;20058;-88
2022/01/04 02:35:30;;;;;;;0.08;0.08;;;;;;;;;;4773449;29;20043;-87
2022/01/04 02:37:57;;;;;;;0.10;0.10;;;;;;;;;;4773551;29;20047;-88
2022/01/04 02:40:23;;;;;;;0.10;0.10;;;;;;;;;;4773395;29;20054;-87
2022/01/04 02:42:49;;;;;;;0.10;0.10;;;;;;;;;;4803075;29;20099;-88
2022/01/04 02:45:15;;;;;;;0.10;0.10;;;;;;;;;;4803083;29;20082;-88
2022/01/04 02:47:41;;;;;;;0.10;0.10;;;;;;;;;;4803166;29;20411;-88
2022/01/04 02:50:07;;;;;;;0.10;0.10;;;;;;;;;;4803289;29;20498;-88
2022/01/04 02:52:34;;;;;;;0.10;0.10;;;;;;;;;;4802961;29;20055;-89
2022/01/04 02:55:00;;;;;;;0.10;0.10;;;;;;;;;;4790612;29;20069;-89
2022/01/04 02:57:26;;;;;;;0.10;0.10;;;;;;;;;;4762268;29;20133;-89
2022/01/04 02:59:52;;;;;;;0.10;0.10;;;;;;;;;;4791437;29;20167;-88
2022/01/04 03:02:18;;;;;;;0.10;0.10;;;;;;;;;;4791356;29;20043;-88
2022/01/04 03:04:44;;;;;;;0.10;0.10;;;;;;;;;;4776369;29;20510;-89
2022/01/04 03:07:10;;;;;;;0.10;0.10;;;;;;;;;;4776848;29;20050;-89
2022/01/04 03:09:38;;;;;;;0.10;0.10;;;;;;;;;;4776382;29;20083;-89
2022/01/04 03:12:05;;;;;;;0.10;0.10;;;;;;;;;;4761367;29;20126;-87
2022/01/04 03:14:31;;;;;;;0.10;0.10;;;;;;;;;;4806371;29;20409;-88
2022/01/04 03:16:57;;;;;;;0.10;0.10;;;;;;;;;;4806124;29;20043;-88
2022/01/04 03:19:23;;;;;;;0.10;0.10;;;;;;;;;;4806024;29;20046;-88
2022/01/04 03:21:49;;;;;;;0.10;0.10;;;;;;;;;;4761667;29;20082;-87
2022/01/04 03:24:15;;;;;;;0.10;0.10;;;;;;;;;;4806226;29;20142;-87
2022/01/04 03:26:41;;;;;;;0.10;0.10;;;;;;;;;;4776312;29;20495;-87
2022/01/04 03:29:07;;;;;;;0.10;0.10;;;;;;;;;;4776063;29;20403;-87
2022/01/04 03:31:33;;;;;;;0.10;0.10;;;;;;;;;;4791171;29;20050;-87
2022/01/04 03:33:59;;;;;;;0.10;0.10;;;;;;;;;;4761101;29;20098;-87
2022/01/04 03:36:25;;;;;;;0.17;0.17;;;;;;;;;;4761177;29;20176;-88
2022/01/04 03:38:52;;;;;;;0.10;0.10;;;;;;;;;;4776068;29;20103;-87
2022/01/04 03:41:18;;;;;;;0.10;0.10;;;;;;;;;;4775802;29;20063;-87
2022/01/04 03:43:44;;;;;;;0.10;0.10;;;;;;;;;;4761274;29;20495;-88
2022/01/04 03:46:10;;;;;;;0.10;0.10;;;;;;;;;;4805828;29;20051;-87
2022/01/04 03:48:36;;;;;;;0.10;0.10;;;;;;;;;;4761033;29;20049;-87
2022/01/04 03:51:03;;;;;;;0.20;0.20;;;;;;;;;;4775815;29;20125;-87
2022/01/04 03:53:29;;;;;;;0.10;0.10;;;;;;;;;;4790364;29;20527;-88
2022/01/04 03:55:55;;;;;;;0.40;0.40;;;;;;;;;;4775809;29;20079;-88
2022/01/04 03:58:21;;;;;;;0.10;0.10;;;;;;;;;;4776288;29;20121;-88
2022/01/04 04:00:47;;;;;;;0.10;0.10;;;;;;;;;;4775906;29;20121;-88
2022/01/04 04:03:13;;;;;;;0.10;0.10;;;;;;;;;;4775841;29;20116;-87
2022/01/04 04:05:39;;;;;;;0.10;0.10;;;;;;;;;;4774476;29;20043;-88
2022/01/04 04:08:05;;;;;;;0.10;0.10;;;;;;;;;;4775651;29;20158;-88
2022/01/04 04:10:31;;;;;;;0.10;0.10;;;;;;;;;;4805230;29;20054;-88
2022/01/04 04:12:57;;;;;;;0.10;0.10;;;;;;;;;;4790091;29;20083;-89
2022/01/04 04:15:23;;;;;;;0.10;0.10;;;;;;;;;;4775499;29;20130;-89
2022/01/04 04:17:48;;;;;;;0.10;0.10;;;;;;;;;;4805051;29;20051;-88
2022/01/04 04:20:14;;;;;;;0.10;0.10;;;;;;;;;;4775596;29;20043;-88
2022/01/04 04:22:40;;;;;;;0.10;0.10;;;;;;;;;;4775441;29;20054;-88
2022/01/04 04:25:07;;;;;;;0.10;0.10;;;;;;;;;;4760463;29;20051;-88
2022/01/04 04:27:33;;;;;;;0.20;0.20;;;;;;;;;;4805071;29;20130;-88
2022/01/04 04:29:58;;;;;;;0.10;0.10;;;;;;;;;;4775251;29;20107;-89
2022/01/04 04:32:25;;;;;;;0.10;0.10;;;;;;;;;;4760101;29;20074;-88
2022/01/04 04:34:51;;;;;;;0.10;0.10;;;;;;;;;;4760294;29;20096;-89
2022/01/04 04:37:16;;;;;;;0.10;0.10;;;;;;;;;;4804830;29;20412;-88
2022/01/04 04:39:42;;;;;;;0.10;0.10;;;;;;;;;;4760000;29;20059;-88
2022/01/04 04:42:09;;;;;;;0.10;0.10;;;;;;;;;;4789898;29;20047;-88
2022/01/04 04:44:34;;;;;;;0.10;0.10;;;;;;;;;;4774819;29;20046;-89
2022/01/04 04:47:00;;;;;;;0.10;0.10;;;;;;;;;;4775030;29;20119;-88
2022/01/04 04:49:26;;;;;;;0.10;0.10;;;;;;;;;;4774877;29;20043;-88
2022/01/04 04:51:54;;;;;;;0.10;0.10;;;;;;;;;;4760261;29;20099;-88
2022/01/04 04:54:20;;;;;;;0.10;0.10;;;;;;;;;;4774624;29;20050;-89
2022/01/04 04:56:46;;;;;;;0.10;0.10;;;;;;;;;;4775286;29;20046;-89
2022/01/04 04:59:12;;;;;;;0.10;0.10;;;;;;;;;;4804458;29;20081;-89
2022/01/04 05:01:38;;;;;;;0.10;0.10;;;;;;;;;;4774858;29;20119;-90
2022/01/04 05:04:04;;;;;;;0.10;0.10;;;;;;;;;;4774857;29;20150;-90
2022/01/04 05:06:30;;;;;;;0.10;0.10;;;;;;;;;;4804556;29;20069;-90
2022/01/04 05:08:56;;;;;;;0.10;0.10;;;;;;;;;;4774694;29;20364;-90
2022/01/04 05:11:22;;;;;;;0.10;0.10;;;;;;;;;;4774746;29;20126;-89
2022/01/04 05:13:48;;;;;;;0.10;0.10;;;;;;;;;;4759545;29;20054;-89
2022/01/04 05:16:14;;;;;;;0.10;0.10;;;;;;;;;;4774286;29;20047;-90
2022/01/04 05:18:40;;;;;;;0.15;0.13;;;;;;;;;;4789045;29;20125;-89
2022/01/04 05:21:06;;;;;;;0.10;0.10;;;;;;;;;;4774471;29;20099;-89
2022/01/04 05:23:32;;;;;;;0.10;0.10;;;;;;;;;;4774325;29;20050;-89
2022/01/04 05:25:58;;;;;;;0.10;0.10;;;;;;;;;;4804219;29;20078;-89
2022/01/04 05:28:24;;;;;;;0.10;0.10;;;;;;;;;;4774506;29;20062;-89
2022/01/04 05:30:50;;;;;;;0.10;0.10;;;;;;;;;;4774699;29;20047;-89
2022/01/04 05:33:16;;;;;;;0.10;0.10;;;;;;;;;;4774136;29;20055;-89
2022/01/04 05:35:42;;;;;;;0.30;0.30;;;;;;;;;;4774285;29;20066;-89
2022/01/04 05:38:08;;;;;;;0.10;0.10;;;;;;;;;;4759262;29;20510;-89
2022/01/04 05:40:34;;;;;;;0.10;0.10;;;;;;;;;;4803671;29;20058;-89
2022/01/04 05:43:00;;;;;;;0.10;0.10;;;;;;;;;;4774097;29;20051;-89
2022/01/04 05:45:26;;;;;;;0.10;0.10;;;;;;;;;;4773987;29;20564;-89
2022/01/04 05:47:52;;;;;;;0.20;0.20;;;;;;;;;;4773983;29;20073;-89
2022/01/04 05:50:18;;;;;;;0.10;0.10;;;;;;;;;;4803959;29;20047;-89
2022/01/04 05:52:44;;;;;;;0.10;0.10;;;;;;;;;;4773689;29;20062;-89
2022/01/04 05:55:10;;;;;;;0.10;0.10;;;;;;;;;;4774096;29;20046;-89
2022/01/04 05:57:36;;;;;;;0.10;0.10;;;;;;;;;;4773824;29;20042;-89
2022/01/04 06:00:02;;;;;;;0.10;0.10;;;;;;;;;;4803763;29;20043;-89
2022/01/04 06:02:28;;;;;;;0.10;0.10;;;;;;;;;;4773744;29;20050;-89
2022/01/04 06:04:54;;;;;;;0.10;0.10;;;;;;;;;;4758871;29;20079;-89
2022/01/04 06:07:20;;;;;;;0.10;0.10;;;;;;;;;;4774118;29;20050;-89
2022/01/04 06:09:49;;;;;;;0.10;0.10;;;;;;;;;;4773733;29;20404;-89
2022/01/04 06:14:57;;;;;;;0.20;0.20;;;;;;;;;;4790746;29;20133;-88
2022/01/04 06:17:33;;;;;;;0.10;0.10;;;;;;;;;;4773796;29;20118;-90
2022/01/04 06:19:59;;;;;;;0.10;0.10;;;;;;;;;;4773818;29;20042;-88
2022/01/04 06:22:25;;;;;;;0.10;0.10;;;;;;;;;;4803430;29;20039;-89
2022/01/04 06:24:51;;;;;;;0.10;0.10;;;;;;;;;;4803626;29;20475;-88
2022/01/04 06:27:17;;;;;;;0.10;0.10;;;;;;;;;;4773694;29;20050;-88
2022/01/04 06:29:43;;;;;;;0.20;0.20;;;;;;;;;;4776100;29;20043;-89
2022/01/04 06:32:09;;;;;;;0.47;0.47;;;;;;;;;;4777147;29;20051;-88
2022/01/04 06:34:35;;;;;;;0.10;0.10;;;;;;;;;;4777220;29;20051;-88
2022/01/04 06:37:01;;;;;;;0.10;0.10;;;;;;;;;;4777129;29;20043;-89
2022/01/04 06:39:27;;;;;;;0.10;0.10;;;;;;;;;;4762233;29;20082;-88
2022/01/04 06:41:53;;;;;;;0.10;0.10;;;;;;;;;;4762473;29;20223;-89
2022/01/04 06:44:19;;;;;;;0.10;0.10;;;;;;;;;;4791865;29;20126;-90
2022/01/04 06:46:45;;;;;;;0.65;0.15;;;;;;;;;;4806648;29;20737;-89
2022/01/04 06:49:15;;;;;;;0.10;0.10;;;;;;;;;;4762152;29;20125;-90
2022/01/04 06:51:41;;;;;;;0.10;0.10;;;;;;;;;;4791650;29;20396;-89
2022/01/04 06:54:10;;;;;;;0.10;0.10;;;;;;;;;;4776864;29;20050;-89
2022/01/04 06:56:36;;;;;;;0.10;0.10;;;;;;;;;;4762113;29;20133;-89
2022/01/04 06:59:03;;;;;;;0.10;0.10;;;;;;;;;;4777176;29;20039;-89
2022/01/04 07:01:29;;;;;;;0.10;0.10;;;;;;;;;;4806448;29;20057;-88
2022/01/04 07:03:55;;;;;;;0.20;0.20;;;;;;;;;;4777050;29;20399;-89
2022/01/04 07:06:21;;;;;;;0.10;0.10;;;;;;;;;;4776969;29;20038;-89
2022/01/04 07:08:47;;;;;;;0.10;0.10;;;;;;;;;;4776649;29;20177;-88
2022/01/04 07:11:14;;;;;;;0.10;0.10;;;;;;;;;;4776673;29;20086;-89
2022/01/04 07:13:40;;;;;;;0.10;0.10;;;;;;;;;;4776663;29;20050;-89
2022/01/04 07:16:06;;;;;;;0.10;0.10;;;;;;;;;;4776541;29;20041;-90
2022/01/04 07:18:32;;;;;;;0.10;0.10;;;;;;;;;;4776577;29;20038;-89
2022/01/04 07:20:58;;;;;;;0.10;0.10;;;;;;;;;;4776526;29;20130;-88
2022/01/04 07:23:24;;;;;;;0.10;0.10;;;;;;;;;;4776514;29;20058;-89
2022/01/04 07:25:51;;;;;;;0.13;0.13;;;;;;;;;;4806288;29;20507;-89
2022/01/04 07:28:17;;;;;;;0.10;0.10;;;;;;;;;;4776404;29;20051;-89
2022/01/04 07:30:43;;;;;;;0.10;0.10;;;;;;;;;;4776287;29;20082;-89
2022/01/04 07:33:08;;;;;;;0.10;0.10;;;;;;;;;;4805952;29;20102;-88
2022/01/04 07:35:34;;;;;;;0.10;0.10;;;;;;;;;;4762315;29;20043;-90
2022/01/04 07:38:00;;;;;;;0.20;0.20;;;;;;;;;;4761892;29;20055;-88
2022/01/04 07:40:26;;;;;;;0.10;0.10;;;;;;;;;;4805676;29;20468;-87
2022/01/04 07:42:54;;;;;;;0.10;0.10;;;;;;;;;;4761509;29;20353;-86
2022/01/04 07:45:20;;;;;;;0.10;0.10;;;;;;;;;;4776151;29;20076;-88
2022/01/04 07:47:46;;;;;;;0.10;0.10;;;;;;;;;;4806228;29;20051;-87
2022/01/04 07:50:12;;;;;;;0.10;0.10;;;;;;;;;;4790917;29;20130;-87
2022/01/04 07:52:38;;;;;;;0.20;0.15;;;;;;;;;;4775774;29;20469;-88
2022/01/04 07:55:04;;;;;;;0.10;0.10;;;;;;;;;;4790646;29;20046;-87
2022/01/04 07:57:31;;;;;;;0.10;0.10;;;;;;;;;;4805828;29;20074;-88
2022/01/04 07:59:57;;;;;;;0.10;0.10;;;;;;;;;;4806658;29;20130;-88
2022/01/04 08:02:23;;;;;;;0.10;0.10;;;;;;;;;;4776762;29;20126;-89
2022/01/04 08:04:48;;;;;;;0.10;0.10;;;;;;;;;;4762319;29;20406;-89
2022/01/04 08:07:14;;;;;;;0.10;0.10;;;;;;;;;;4805890;29;20047;-88
2022/01/04 08:09:41;;;;;;;0.10;0.10;;;;;;;;;;4775733;29;20130;-88
2022/01/04 08:12:07;;;;;;;0.10;0.10;;;;;;;;;;4775731;29;20137;-88
2022/01/04 08:14:33;;;;;;;0.10;0.10;;;;;;;;;;4775657;29;20119;-88
2022/01/04 08:16:59;;;;;;;0.10;0.10;;;;;;;;;;4775685;29;20042;-88
2022/01/04 08:19:25;;;;;;;0.10;0.10;;;;;;;;;;4790287;29;20047;-90
2022/01/04 08:21:51;;;;;;;0.10;0.10;;;;;;;;;;4760625;29;20089;-88
2022/01/04 08:24:17;;;;;;;0.10;0.10;;;;;;;;;;4805238;29;20372;-88
2022/01/04 08:26:43;;;;;;;0.10;0.10;;;;;;;;;;4775330;29;20151;-87
2022/01/04 08:29:09;;;;;;;0.10;0.10;;;;;;;;;;4773614;29;20050;-85
2022/01/04 08:31:35;;;;;;;0.10;0.10;;;;;;;;;;4789680;29;20047;-86
2022/01/04 08:34:01;;;;;;;0.10;0.10;;;;;;;;;;4812922;29;20069;-85
2022/01/04 08:36:28;;;;;;;0.10;0.10;;;;;;;;;;4803403;29;20043;-85
2022/01/04 08:38:55;;;;;;;0.10;0.10;;;;;;;;;;4774432;29;20046;-85
2022/01/04 08:41:21;;;;;;;0.10;0.10;;;;;;;;;;4774926;29;20054;-84
2022/01/04 08:43:47;;;;;;;0.10;0.10;;;;;;;;;;4789034;29;20407;-85
2022/01/04 08:46:13;;;;;;;0.10;0.10;;;;;;;;;;4774759;29;20043;-86
2022/01/04 08:48:39;;;;;;;0.10;0.10;;;;;;;;;;4804723;29;20058;-86
2022/01/04 08:51:14;;;;;;;0.10;0.10;;;;;;;;;;4774147;29;20047;-85
2022/01/04 08:53:40;;;;;;;0.10;0.10;;;;;;;;;;4789460;29;20043;-86
2022/01/04 08:56:06;;;;;;;0.00;0.00;;;;;;;;;;4760154;29;20459;-85
2022/01/04 08:58:32;;;;;;;0.10;0.10;;;;;;;;;;4775033;29;20130;-84
2022/01/04 09:00:59;;;;;;;0.00;0.00;;;;;;;;;;4804733;29;20134;-86
2022/01/04 09:03:26;;;;;;;0.10;0.10;;;;;;;;;;4774487;29;20050;-84
2022/01/04 09:05:54;;;;;;;0.10;0.10;;;;;;;;;;4774822;29;20051;-84
2022/01/04 09:08:20;;;;;;;0.10;0.10;;;;;;;;;;4804502;29;20046;-84
2022/01/04 09:10:46;;;;;;;0.10;0.10;;;;;;;;;;4804189;29;20183;-83
2022/01/04 09:13:19;;;;;;;0.10;0.10;;;;;;;;;;4774426;29;20517;-83
2022/01/04 09:18:43;;;;;;;0.20;0.20;;;;;;;;;;4753146;29;20104;-83
2022/01/04 09:21:10;;;;;;;0.10;0.10;;;;;;;;;;4805356;29;20457;-83
2022/01/04 09:23:36;;;;;;;0.10;0.10;;;;;;;;;;4774492;29;20068;-84
2022/01/04 09:26:02;;;;;;;0.10;0.10;;;;;;;;;;4789585;29;20139;-84
2022/01/04 09:28:28;;;;;;;0.10;0.10;;;;;;;;;;4774283;29;20058;-83
2022/01/04 09:30:55;;;;;;;0.10;0.10;;;;;;;;;;4774175;29;20134;-84
2022/01/04 09:33:21;;;;;;;0.10;0.10;;;;;;;;;;4788530;29;20050;-84
2022/01/04 09:35:49;;;;;;;0.10;0.10;;;;;;;;;;4774111;29;20426;-84
2022/01/04 09:38:14;;;;;;;0.10;0.10;;;;;;;;;;4803951;29;20126;-82
2022/01/04 09:40:40;;;;;;;0.10;0.10;;;;;;;;;;4803711;29;20137;-85
2022/01/04 09:43:06;;;;;;;0.10;0.10;;;;;;;;;;4773955;29;20042;-85
2022/01/04 09:45:33;;;;;;;0.10;0.10;;;;;;;;;;4803919;29;20133;-84
2022/01/04 09:47:58;;;;;;;0.00;0.00;;;;;;;;;;4803887;29;20403;-84
2022/01/04 09:50:24;;;;;;;0.10;0.10;;;;;;;;;;4774150;29;20050;-85
2022/01/04 09:52:53;;;;;;;0.10;0.10;;;;;;;;;;4803647;29;20078;-84
2022/01/04 09:55:19;;;;;;;0.15;0.15;;;;;;;;;;4774230;29;20050;-85
2022/01/04 09:57:45;;;;;;;0.10;0.10;;;;;;;;;;4788614;29;20407;-83
2022/01/04 10:00:14;;;;;;;0.10;0.10;;;;;;;;;;4773813;29;20043;-87
2022/01/04 10:02:40;;;;;;;0.10;0.10;;;;;;;;;;4773607;29;20180;-85
2022/01/04 10:05:13;;;;;;;0.10;0.10;;;;;;;;;;4803450;29;20512;-86
2022/01/04 10:07:39;;;;;;;0.10;0.10;;;;;;;;;;4803701;29;20051;-86
2022/01/04 10:10:05;;;;;;;0.10;0.10;;;;;;;;;;4759362;29;20066;-86
2022/01/04 10:12:33;;;;;;;0.10;0.10;;;;;;;;;;4759205;29;20057;-86
2022/01/04 10:14:59;;;;;;;0.10;0.10;;;;;;;;;;4759166;29;20051;-85
2022/01/04 10:17:28;;;;;;;0.10;0.10;;;;;;;;;;4803570;29;20361;-85
2022/01/04 10:19:55;;;;;;;0.10;0.10;;;;;;;;;;4773770;29;20047;-85
2022/01/04 10:22:25;;;;;;;0.10;0.10;;;;;;;;;;4773670;29;20049;-85
2022/01/04 10:25:08;;;;;;;0.10;0.10;;;;;;;;;;4788632;29;20403;-85
2022/01/04 10:27:37;;;;;;;0.10;0.10;;;;;;;;;;4773743;29;20051;-86
2022/01/04 10:30:10;;;;;;;0.10;0.10;;;;;;;;;;4803267;29;20125;-86
2022/01/04 10:32:45;;;;;;;0.10;0.10;;;;;;;;;;4773745;29;20043;-86
2022/01/04 10:35:11;;;;;;;0.10;0.10;;;;;;;;;;4803260;29;20507;-85
2022/01/04 10:37:39;;;;;;;0.10;0.10;;;;;;;;;;4773914;29;20042;-85
2022/01/04 10:40:05;;;;;;;0.10;0.10;;;;;;;;;;4803372;29;20129;-86
2022/01/04 10:42:31;;;;;;;0.10;0.10;;;;;;;;;;4773898;29;20082;-85
2022/01/04 10:44:57;;;;;;;0.10;0.10;;;;;;;;;;4803208;29;20487;-85
2022/01/04 10:47:29;;;;;;;0.10;0.10;;;;;;;;;;4773442;29;20051;-85
2022/01/04 10:49:55;;;;;;;0.10;0.10;;;;;;;;;;4803180;29;20051;-83
2022/01/04 10:52:23;;;;;;;0.10;0.10;;;;;;;;;;4773540;29;20047;-84
2022/01/04 10:55:07;;;;;;;0.10;0.10;;;;;;;;;;4758717;29;20891;-84
2022/01/04 10:57:36;;;;;;;0.10;0.10;;;;;;;;;;4803331;29;20065;-83
2022/01/04 11:00:15;;;;;;;0.10;0.10;;;;;;;;;;4803239;29;20054;-84
2022/01/04 11:02:41;;;;;;;0.10;0.10;;;;;;;;;;4773324;29;20050;-84
2022/01/04 11:05:14;;;;;;;0.10;0.10;;;;;;;;;;4803488;29;20051;-85
2022/01/04 11:07:40;;;;;;;;;;;;;;;;;;4803439;29;20042;-85
2022/01/04 11:10:06;;;;;;;0.05;0.05;;;;;;;;;;4788298;29;20290;-84
2022/01/04 11:12:32;;;;;;;0.10;0.10;;;;;;;;;;4773352;29;20066;-84
2022/01/04 11:14:58;;;;;;;0.10;0.10;;;;;;;;;;4774252;29;20479;-87
2022/01/04 11:17:24;;;;;;;0.10;0.10;;;;;;;;;;4776674;29;20104;-86
2022/01/04 11:19:50;;;;;;;0.10;0.10;;;;;;;;;;4791321;29;20051;-86
2022/01/04 11:22:16;;;;;;;0.00;0.00;;;;;;;;;;4776176;29;20038;-87
2022/01/04 11:24:46;;;;;;;0.10;0.10;;;;;;;;;;4776627;29;20057;-86
2022/01/04 11:27:12;;;;;;;0.10;0.10;;;;;;;;;;4777203;29;20174;-86
2022/01/04 11:29:38;;;;;;;0.10;0.10;;;;;;;;;;4791231;29;20515;-85
2022/01/04 11:32:05;;;;;;;0.10;0.10;;;;;;;;;;4776050;29;20509;-84
2022/01/04 11:34:50;;;;;;;0.10;0.10;;;;;;;;;;4776084;29;20187;-86
2022/01/04 11:37:20;;;;;;;0.10;0.10;;;;;;;;;;4805947;29;20043;-85
2022/01/04 11:39:46;;;;;;;0.10;0.10;;;;;;;;;;4790880;29;20066;-85
2022/01/04 11:42:34;;;;;;;0.10;0.10;;;;;;;;;;4761730;29;20053;-85
2022/01/04 11:45:00;;;;;;;0.10;0.10;;;;;;;;;;4791007;29;20051;-84
2022/01/04 11:47:28;;;;;;;0.10;0.10;;;;;;;;;;4790751;29;20091;-84
2022/01/04 11:50:10;;;;;;;0.10;0.10;;;;;;;;;;4776470;29;20058;-86
2022/01/04 11:52:46;;;;;;;0.10;0.10;;;;;;;;;;4761231;29;20046;-86
2022/01/04 11:55:15;;;;;;;0.10;0.10;;;;;;;;;;4761139;29;20046;-86
2022/01/04 11:57:41;;;;;;;0.00;0.00;;;;;;;;;;4791683;29;20073;-86
2022/01/04 12:00:07;;;;;;;0.10;0.10;;;;;;;;;;4776401;29;20075;-86
2022/01/04 12:02:39;;;;;;;0.10;0.10;;;;;;;;;;4775872;29;20050;-86
2022/01/04 12:05:05;;;;;;;0.10;0.10;;;;;;;;;;4761846;29;20047;-87
2022/01/04 12:07:42;;;;;;;0.10;0.10;;;;;;;;;;4809198;29;20038;-86
2022/01/04 12:10:31;;;;;;;0.00;0.00;;;;;;;;;;4793378;29;20065;-86
2022/01/04 12:13:01;;;;;;;0.10;0.10;;;;;;;;;;4802854;29;20129;-86
2022/01/04 12:15:33;;;;;;;0.10;0.10;;;;;;;;;;4805243;29;20053;-86
2022/01/04 12:18:03;;;;;;;0.10;0.10;;;;;;;;;;4790266;29;20094;-86
2022/01/04 12:20:41;;;;;;;0.00;0.00;;;;;;;;;;4775807;29;20394;-86
2022/01/04 12:23:26;;;;;;;0.10;0.10;;;;;;;;;;4790320;29;20043;-84
2022/01/04 12:26:16;;;;;;;0.10;0.10;;;;;;;;;;4789652;29;20047;-86
2022/01/04 12:28:42;;;;;;;0.08;0.08;;;;;;;;;;4805673;29;20123;-86
2022/01/04 12:31:17;;;;;;;0.00;0.00;;;;;;;;;;4790259;29;20043;-85
2022/01/04 12:33:43;;;;;;;0.10;0.10;;;;;;;;;;4789457;29;20042;-86
2022/01/04 12:36:09;;;;;;;0.10;0.10;;;;;;;;;;4804945;29;20045;-86
2022/01/04 12:38:35;;;;;;;0.10;0.10;;;;;;;;;;4775196;29;20073;-86
2022/01/04 12:41:01;;;;;;;0.00;0.00;;;;;;;;;;4760137;29;20051;-86
2022/01/04 12:43:28;;;;;;;0.10;0.10;;;;;;;;;;4760509;29;20051;-86
2022/01/04 12:46:00;;;;;;;0.10;0.10;;;;;;;;;;4804846;29;20419;-86
2022/01/04 12:48:45;;;;;;;0.10;0.10;;;;;;;;;;4804803;29;20057;-86
2022/01/04 12:51:26;;;;;;;0.10;0.10;;;;;;;;;;4805000;29;20077;-86
2022/01/04 12:53:53;;;;;;;0.10;0.10;;;;;;;;;;4804793;29;20053;-86
2022/01/04 12:56:19;;;;;;;0.10;0.10;;;;;;;;;;4789645;29;20563;-85
2022/01/04 12:58:45;;;;;;;0.00;0.00;;;;;;;;;;4775141;29;20047;-86
2022/01/04 13:01:11;;;;;;;0.10;0.10;;;;;;;;;;4804647;29;20047;-86
2022/01/04 13:03:38;;;;;;;0.00;0.00;;;;;;;;;;4804731;29;20055;-86
2022/01/04 13:06:04;;;;;;;0.10;0.10;;;;;;;;;;4804555;29;20139;-86
2022/01/04 13:08:35;;;;;;;0.10;0.10;;;;;;;;;;4774633;29;20047;-85
2022/01/04 13:11:04;;;;;;;0.10;0.10;;;;;;;;;;4760366;29;20156;-86
2022/01/04 13:13:30;;;;;;;0.10;0.10;;;;;;;;;;4789526;29;20126;-85
2022/01/04 13:15:57;;;;;;;0.10;0.10;;;;;;;;;;4774704;29;20089;-86
2022/01/04 13:18:27;;;;;;;0.10;0.10;;;;;;;;;;4789232;29;20049;-86
2022/01/04 13:20:53;;;;;;;0.10;0.10;;;;;;;;;;4774479;29;20156;-87
2022/01/04 13:23:19;;;;;;;0.10;0.10;;;;;;;;;;4773993;29;20129;-85
2022/01/04 13:25:45;;;;;;;0.10;0.10;;;;;;;;;;4774499;29;20053;-87
2022/01/04 13:28:11;;;;;;;0.10;0.10;;;;;;;;;;4759628;29;20050;-88
2022/01/04 13:30:40;;;;;;;0.10;0.10;;;;;;;;;;4804801;29;20107;-86
2022/01/04 13:33:10;;;;;;;0.10;0.10;;;;;;;;;;4759669;29;20405;-87
2022/01/04 13:35:37;;;;;;;0.10;0.10;;;;;;;;;;4774112;29;20500;-87
2022/01/04 13:38:04;;;;;;;0.10;0.10;;;;;;;;;;4803880;29;20063;-87
2022/01/04 13:40:31;;;;;;;0.00;0.00;;;;;;;;;;4774081;29;20431;-87
2022/01/04 13:42:57;;;;;;;0.00;0.00;;;;;;;;;;4804108;29;20582;-87
2022/01/04 13:45:23;;;;;;;0.10;0.10;;;;;;;;;;4774013;29;20086;-86
2022/01/04 13:47:50;;;;;;;0.75;0.15;;;;;;;;;;4774137;29;20098;-86
2022/01/04 13:50:20;;;;;;;0.10;0.10;;;;;;;;;;4774158;29;20353;-87
2022/01/04 13:53:05;;;;;;;0.10;0.10;;;;;;;;;;4773945;29;20058;-87
2022/01/04 13:55:50;;;;;;;0.10;0.10;;;;;;;;;;4773767;29;20043;-87
2022/01/04 13:58:31;;;;;;;0.10;0.10;;;;;;;;;;4801244;29;20464;-86
2022/01/04 14:00:57;;;;;;;0.10;0.10;;;;;;;;;;4818717;29;20043;-87
2022/01/04 14:03:27;;;;;;;0.10;0.10;;;;;;;;;;4803625;29;20095;-87
2022/01/04 14:05:53;;;;;;;0.10;0.10;;;;;;;;;;4818820;29;20055;-87
2022/01/04 14:08:19;;;;;;;0.10;0.10;;;;;;;;;;4773919;29;20050;-86
2022/01/04 14:10:50;;;;;;;0.10;0.10;;;;;;;;;;4773754;29;20062;-87
2022/01/04 14:13:29;;;;;;;0.10;0.10;;;;;;;;;;4788662;29;20131;-86
2022/01/04 14:16:12;;;;;;;0.10;0.10;;;;;;;;;;4803691;29;20488;-86
2022/01/04 14:18:38;;;;;;;0.10;0.10;;;;;;;;;;4773834;29;20039;-86
2022/01/04 14:21:04;;;;;;;0.10;0.10;;;;;;;;;;4803387;29;20054;-86
2022/01/04 14:23:33;;;;;;;0.10;0.10;;;;;;;;;;4803689;29;20046;-84
2022/01/04 14:26:06;;;;;;;0.10;0.10;;;;;;;;;;4788140;29;20086;-86
2022/01/04 14:28:32;;;;;;;0.10;0.10;;;;;;;;;;4773447;29;20086;-87
2022/01/04 14:30:58;;;;;;;0.10;0.10;;;;;;;;;;4773365;29;20055;-86
2022/01/04 14:33:24;;;;;;;0.10;0.10;;;;;;;;;;4803351;29;20047;-86
2022/01/04 14:35:50;;;;;;;0.10;0.10;;;;;;;;;;4803329;29;20042;-86
2022/01/04 14:38:16;;;;;;;0.10;0.10;;;;;;;;;;4803230;29;20046;-86
2022/01/04 14:40:43;;;;;;;0.10;0.10;;;;;;;;;;4773315;29;20062;-86
2022/01/04 14:43:09;;;;;;;0.10;0.10;;;;;;;;;;4803165;29;20049;-86
2022/01/04 14:45:36;;;;;;;0.10;0.10;;;;;;;;;;4773502;29;20042;-87
2022/01/04 14:48:02;;;;;;;0.10;0.10;;;;;;;;;;4818194;29;20050;-87
2022/01/04 14:50:28;;;;;;;0.10;0.10;;;;;;;;;;4805340;29;20176;-87
2022/01/04 14:52:55;;;;;;;0.10;0.10;;;;;;;;;;4806860;29;20100;-87